createdAt,value
2019-05-30T00:00:10.462Z,5.67
2019-05-30T00:02:34.666Z,4.90
2019-05-30T00:05:06.103Z,5.03
2019-05-30T00:07:37.242Z,5.43
2019-05-30T00:10:09.435Z,5.23
2019-05-30T00:12:40.383Z,5.50
2019-05-30T00:15:11.550Z,5.63
2019-05-30T00:17:42.573Z,6.00
2019-05-30T00:20:14.008Z,4.77
2019-05-30T00:22:44.863Z,5.53
2019-05-30T00:25:15.974Z,5.17
2019-05-30T00:27:46.923Z,7.57
2019-05-30T00:30:24.519Z,7.10
2019-05-30T00:32:50.639Z,17.33
2019-05-30T00:35:21.785Z,19.60
2019-05-30T00:37:52.798Z,20.67
2019-05-30T00:40:23.852Z,19.97
2019-05-30T00:42:55.821Z,16.13
2019-05-30T00:45:28.291Z,14.43
2019-05-30T00:48:00.137Z,13.53
2019-05-30T00:50:31.254Z,16.20
2019-05-30T00:53:02.887Z,14.47
2019-05-30T00:55:33.958Z,12.53
2019-05-30T00:58:04.991Z,8.90
2019-05-30T01:00:43.242Z,10.20
2019-05-30T01:03:09.191Z,13.40
2019-05-30T01:05:41.504Z,15.53
2019-05-30T01:08:12.409Z,16.53
2019-05-30T01:10:43.394Z,14.63
2019-05-30T01:13:14.317Z,13.80
2019-05-30T01:15:45.290Z,14.27
2019-05-30T01:18:16.325Z,15.03
2019-05-30T01:20:47.288Z,14.37
2019-05-30T01:23:18.231Z,14.57
2019-05-30T01:25:49.354Z,12.13
2019-05-30T01:28:20.441Z,12.43
2019-05-30T01:31:01.535Z,14.43
2019-05-30T01:33:24.087Z,14.10
2019-05-30T01:35:56.046Z,14.77
2019-05-30T01:38:29.124Z,12.70
2019-05-30T01:41:00.293Z,9.80
2019-05-30T01:43:31.281Z,8.53
2019-05-30T01:46:04.132Z,9.60
2019-05-30T01:48:35.440Z,9.97
2019-05-30T01:51:06.592Z,9.27
2019-05-30T01:53:37.497Z,10.13
2019-05-30T01:56:09.195Z,8.67
2019-05-30T01:58:40.138Z,11.63
2019-05-30T02:01:22.382Z,6.93
2019-05-30T02:03:43.669Z,8.30
2019-05-30T02:06:14.636Z,7.20
2019-05-30T02:08:45.509Z,5.70
2019-05-30T02:11:17.172Z,6.60
2019-05-30T02:13:48.256Z,6.57
2019-05-30T02:16:19.407Z,5.70
2019-05-30T02:18:50.858Z,5.80
2019-05-30T02:21:22.077Z,5.77
2019-05-30T02:23:52.994Z,6.27
2019-05-30T02:26:23.940Z,5.23
2019-05-30T02:28:54.838Z,6.30
2019-05-30T02:31:38.413Z,6.23
2019-05-30T02:34:00.879Z,5.80
2019-05-30T02:36:32.857Z,5.93
2019-05-30T02:39:05.003Z,4.57
2019-05-30T02:41:36.213Z,5.57
2019-05-30T02:44:08.125Z,5.70
2019-05-30T02:46:40.150Z,6.40
2019-05-30T02:49:13.099Z,6.30
2019-05-30T02:51:43.743Z,6.00
2019-05-30T02:54:14.653Z,6.03
2019-05-30T02:56:45.595Z,6.57
2019-05-30T02:59:16.451Z,5.40
2019-05-30T03:02:01.093Z,4.63
2019-05-30T03:04:20.003Z,5.87
2019-05-30T03:06:51.123Z,6.03
2019-05-30T03:09:22.249Z,6.80
2019-05-30T03:11:53.481Z,8.53
2019-05-30T03:14:24.589Z,6.00
2019-05-30T03:16:55.595Z,9.47
2019-05-30T03:19:27.254Z,18.60
2019-05-30T03:21:58.979Z,10.27
2019-05-30T03:24:29.894Z,6.10
2019-05-30T03:27:02.453Z,6.60
2019-05-30T03:29:33.576Z,6.53
2019-05-30T03:32:45.064Z,6.13
2019-05-30T03:34:38.137Z,6.47
2019-05-30T03:37:18.891Z,6.37
2019-05-30T03:39:43.314Z,6.07
2019-05-30T03:42:15.971Z,6.27
2019-05-30T03:44:47.394Z,5.73
2019-05-30T03:47:21.345Z,5.40
2019-05-30T03:49:57.517Z,5.10
2019-05-30T03:52:29.239Z,5.87
2019-05-30T03:55:01.117Z,6.13
2019-05-30T03:57:35.752Z,5.73
2019-05-30T04:04:02.142Z,5.37
2019-05-30T04:06:36.838Z,5.50
2019-05-30T04:09:11.883Z,5.40
2019-05-30T04:11:49.763Z,5.93
2019-05-30T04:14:25.655Z,6.00
2019-05-30T04:16:57.164Z,4.90
2019-05-30T04:19:28.720Z,5.53
2019-05-30T04:22:00.517Z,5.33
2019-05-30T04:24:30.623Z,5.40
2019-05-30T04:27:01.466Z,4.77
2019-05-30T04:29:32.321Z,4.97
2019-05-30T04:32:03.187Z,5.43
2019-05-30T04:34:34.073Z,5.10
2019-05-30T04:37:05.886Z,5.10
2019-05-30T04:39:36.794Z,4.30
2019-05-30T04:42:09.272Z,4.07
2019-05-30T04:44:39.902Z,4.43
2019-05-30T04:47:12.130Z,4.77
2019-05-30T04:49:43.241Z,4.23
2019-05-30T04:52:18.315Z,4.07
2019-05-30T04:54:48.211Z,3.60
2019-05-30T04:57:25.699Z,3.57
2019-05-30T04:59:53.448Z,3.50
2019-05-30T05:02:25.194Z,3.27
2019-05-30T05:04:56.905Z,3.80
2019-05-30T05:07:28.940Z,3.17
2019-05-30T05:10:00.731Z,3.20
2019-05-30T05:12:32.759Z,2.57
2019-05-30T05:15:04.565Z,2.90
2019-05-30T05:17:36.215Z,3.17
2019-05-30T05:20:09.599Z,2.97
2019-05-30T05:22:41.237Z,3.20
2019-05-30T05:25:13.479Z,2.40
2019-05-30T05:27:46.285Z,2.90
2019-05-30T05:30:20.141Z,2.87
2019-05-30T05:32:51.742Z,2.80
2019-05-30T05:35:23.127Z,2.70
2019-05-30T05:37:54.718Z,3.00
2019-05-30T05:40:26.340Z,3.30
2019-05-30T05:42:57.875Z,2.73
2019-05-30T05:45:29.386Z,3.00
2019-05-30T05:48:00.954Z,3.10
2019-05-30T05:50:32.516Z,2.30
2019-05-30T05:53:04.198Z,2.13
2019-05-30T05:55:36.286Z,2.03
2019-05-30T05:58:07.991Z,2.20
2019-05-30T06:00:41.281Z,2.13
2019-05-30T06:03:16.829Z,1.90
2019-05-30T06:05:53.076Z,1.83
2019-05-30T06:08:21.661Z,1.73
2019-05-30T06:10:53.452Z,1.87
2019-05-30T06:13:25.010Z,1.63
2019-05-30T06:15:56.717Z,1.30
2019-05-30T06:18:28.462Z,1.17
2019-05-30T06:21:00.071Z,1.20
2019-05-30T06:23:31.760Z,1.10
2019-05-30T06:26:03.594Z,1.37
2019-05-30T06:28:35.130Z,1.40
2019-05-30T06:31:06.400Z,1.03
2019-05-30T06:33:38.038Z,1.30
2019-05-30T06:36:10.181Z,1.23
2019-05-30T06:38:41.926Z,1.07
2019-05-30T06:41:13.770Z,0.93
2019-05-30T06:43:45.203Z,1.60
2019-05-30T06:46:16.798Z,1.00
2019-05-30T06:48:48.999Z,1.23
2019-05-30T06:51:22.814Z,0.80
2019-05-30T06:53:54.753Z,0.90
2019-05-30T06:56:27.462Z,1.27
2019-05-30T06:58:59.093Z,0.90
2019-05-30T07:01:32.064Z,0.80
2019-05-30T07:04:04.244Z,0.80
2019-05-30T07:06:36.381Z,1.40
2019-05-30T07:09:09.670Z,1.00
2019-05-30T07:11:41.426Z,1.07
2019-05-30T07:14:13.228Z,1.00
2019-05-30T07:16:44.811Z,1.30
2019-05-30T07:19:16.376Z,0.90
2019-05-30T07:21:47.980Z,1.00
2019-05-30T07:24:19.614Z,1.00
2019-05-30T07:26:52.468Z,1.00
2019-05-30T07:29:24.016Z,1.00
2019-05-30T07:31:55.845Z,1.30
2019-05-30T07:34:28.143Z,1.50
2019-05-30T07:36:59.809Z,1.00
2019-05-30T07:39:33.744Z,1.00
2019-05-30T07:42:06.758Z,1.23
2019-05-30T07:44:38.616Z,1.00
2019-05-30T07:47:10.317Z,1.80
2019-05-30T07:49:42.420Z,1.30
2019-05-30T07:52:14.680Z,1.20
2019-05-30T07:54:47.391Z,0.93
2019-05-30T07:57:19.079Z,1.40
2019-05-30T07:59:51.135Z,1.63
2019-05-30T08:02:22.879Z,1.20
2019-05-30T08:04:54.563Z,1.47
2019-05-30T08:07:26.550Z,1.30
2019-05-30T08:09:59.404Z,1.20
2019-05-30T08:12:32.016Z,1.20
2019-05-30T08:15:03.825Z,1.10
2019-05-30T08:20:06.913Z,1.23
2019-05-30T08:22:38.498Z,1.10
2019-05-30T08:25:11.345Z,1.10
2019-05-30T08:27:43.093Z,1.67
2019-05-30T08:30:15.321Z,1.30
2019-05-30T08:32:46.768Z,1.60
2019-05-30T08:35:18.233Z,1.93
2019-05-30T08:37:49.811Z,1.40
2019-05-30T08:40:21.647Z,1.10
2019-05-30T08:42:53.825Z,1.13
2019-05-30T08:45:25.467Z,1.10
2019-05-30T08:47:57.047Z,1.27
2019-05-30T08:50:28.642Z,1.00
2019-05-30T08:53:01.042Z,1.33
2019-05-30T08:55:32.693Z,1.07
2019-05-30T08:58:05.734Z,1.20
2019-05-30T09:00:37.423Z,1.07
2019-05-30T09:03:09.124Z,1.30
2019-05-30T09:05:57.008Z,1.20
2019-05-30T09:08:15.006Z,1.17
2019-05-30T09:10:46.800Z,1.10
2019-05-30T09:13:18.438Z,1.20
2019-05-30T09:15:49.492Z,1.20
2019-05-30T09:18:20.551Z,1.20
2019-05-30T09:20:52.217Z,1.07
2019-05-30T09:23:23.903Z,1.30
2019-05-30T09:25:55.631Z,1.10
2019-05-30T09:28:27.167Z,1.20
2019-05-30T09:30:58.786Z,1.10
2019-05-30T09:33:30.783Z,1.17
2019-05-30T09:36:12.572Z,1.20
2019-05-30T09:38:35.978Z,1.00
2019-05-30T09:41:07.885Z,1.20
2019-05-30T09:43:39.828Z,1.30
2019-05-30T09:46:12.860Z,1.33
2019-05-30T09:48:44.784Z,1.23
2019-05-30T09:51:17.851Z,1.23
2019-05-30T09:53:50.435Z,1.40
2019-05-30T09:56:22.261Z,1.20
2019-05-30T09:58:54.680Z,1.00
2019-05-30T10:01:26.449Z,1.27
2019-05-30T10:03:58.514Z,0.90
2019-05-30T10:06:30.647Z,0.90
2019-05-30T10:09:02.658Z,1.13
2019-05-30T10:11:35.936Z,1.37
2019-05-30T10:14:07.558Z,1.10
2019-05-30T10:16:39.275Z,1.20
2019-05-30T10:19:11.210Z,1.10
2019-05-30T10:21:42.930Z,1.00
2019-05-30T10:24:14.707Z,1.07
2019-05-30T10:26:47.240Z,1.10
2019-05-30T10:29:18.929Z,1.10
2019-05-30T10:31:50.666Z,1.10
2019-05-30T10:34:26.421Z,1.10
2019-05-30T10:36:57.907Z,1.23
2019-05-30T10:39:29.561Z,1.23
2019-05-30T10:42:01.836Z,1.10
2019-05-30T10:44:34.972Z,1.20
2019-05-30T10:47:06.278Z,1.20
2019-05-30T10:49:37.894Z,1.03
2019-05-30T10:52:09.603Z,1.20
2019-05-30T10:54:41.154Z,1.37
2019-05-30T10:57:12.815Z,1.10
2019-05-30T10:59:43.819Z,1.37
2019-05-30T11:02:15.381Z,1.10
2019-05-30T11:04:47.811Z,1.23
2019-05-30T11:07:33.093Z,1.43
2019-05-30T11:10:12.597Z,1.10
2019-05-30T11:12:43.624Z,1.10
2019-05-30T11:15:16.115Z,1.27
2019-05-30T11:17:49.008Z,1.23
2019-05-30T11:20:22.659Z,1.10
2019-05-30T11:22:54.768Z,1.40
2019-05-30T11:25:27.465Z,1.07
2019-05-30T11:27:58.966Z,1.13
2019-05-30T11:30:31.051Z,1.20
2019-05-30T11:33:02.703Z,1.00
2019-05-30T11:35:35.218Z,0.97
2019-05-30T11:38:06.477Z,2.17
2019-05-30T11:40:37.501Z,1.30
2019-05-30T11:43:08.646Z,1.07
2019-05-30T11:45:39.947Z,1.20
2019-05-30T11:48:13.832Z,1.20
2019-05-30T11:50:44.760Z,1.33
2019-05-30T11:53:15.762Z,1.20
2019-05-30T11:55:46.649Z,1.30
2019-05-30T11:58:19.600Z,1.27
2019-05-30T12:00:50.227Z,1.40
2019-05-30T12:03:21.417Z,1.40
2019-05-30T12:05:52.550Z,1.10
2019-05-30T12:08:23.770Z,1.03
2019-05-30T12:10:54.909Z,1.20
2019-05-30T12:13:26.401Z,1.13
2019-05-30T12:15:57.516Z,0.90
2019-05-30T12:18:28.785Z,1.00
2019-05-30T12:20:59.842Z,1.30
2019-05-30T12:23:30.866Z,1.07
2019-05-30T12:26:02.268Z,1.20
2019-05-30T12:28:33.330Z,1.27
2019-05-30T12:31:06.448Z,1.17
2019-05-30T12:33:36.918Z,0.90
2019-05-30T12:36:06.886Z,1.10
2019-05-30T12:38:37.891Z,1.00
2019-05-30T12:41:09.651Z,1.17
2019-05-30T12:43:40.692Z,1.40
2019-05-30T12:46:11.765Z,1.10
2019-05-30T12:48:42.669Z,1.20
2019-05-30T12:51:13.768Z,0.90
2019-05-30T12:53:44.622Z,1.17
2019-05-30T12:56:15.505Z,1.20
2019-05-30T12:58:47.470Z,1.10
2019-05-30T13:01:18.802Z,1.23
2019-05-30T13:03:49.764Z,1.30
2019-05-30T13:06:20.595Z,1.30
2019-05-30T13:08:51.968Z,0.87
2019-05-30T13:11:22.920Z,1.10
2019-05-30T13:13:55.095Z,1.00
2019-05-30T13:16:26.277Z,1.00
2019-05-30T13:18:57.970Z,1.10
2019-05-30T13:21:29.344Z,1.07
2019-05-30T13:24:01.479Z,1.10
2019-05-30T13:26:32.796Z,1.03
2019-05-30T13:29:04.406Z,1.10
2019-05-30T13:31:35.614Z,1.23
2019-05-30T13:34:07.135Z,1.10
2019-05-30T13:36:38.313Z,1.20
2019-05-30T13:39:08.053Z,1.20
2019-05-30T13:41:39.066Z,1.20
2019-05-30T13:44:10.038Z,1.20
2019-05-30T13:46:40.953Z,1.40
2019-05-30T13:49:11.912Z,1.30
2019-05-30T13:51:42.872Z,1.40
2019-05-30T13:54:13.771Z,1.17
2019-05-30T13:56:44.693Z,1.20
2019-05-30T13:59:15.632Z,1.10
2019-05-30T14:01:46.626Z,0.90
2019-05-30T14:04:17.587Z,1.10
2019-05-30T14:06:45.397Z,1.00
2019-05-30T14:09:16.281Z,1.27
2019-05-30T14:11:47.402Z,1.20
2019-05-30T14:14:19.824Z,1.17
2019-05-30T14:16:51.306Z,1.40
2019-05-30T14:19:25.009Z,1.10
2019-05-30T14:21:54.960Z,1.40
2019-05-30T14:24:27.483Z,1.40
2019-05-30T14:26:58.441Z,1.40
2019-05-30T14:29:29.396Z,1.10
2019-05-30T14:32:02.264Z,1.10
2019-05-30T14:34:34.544Z,1.30
2019-05-30T14:37:06.396Z,1.17
2019-05-30T14:39:37.677Z,1.30
2019-05-30T14:42:09.635Z,1.37
2019-05-30T14:44:40.642Z,1.20
2019-05-30T14:47:12.726Z,1.30
2019-05-30T14:49:44.757Z,1.13
2019-05-30T14:52:17.209Z,1.10
2019-05-30T14:54:49.288Z,1.13
2019-05-30T14:57:21.262Z,1.10
2019-05-30T14:59:53.022Z,0.93
2019-05-30T15:02:24.588Z,0.90
2019-05-30T15:04:56.760Z,1.20
2019-05-30T15:07:28.525Z,0.90
2019-05-30T15:10:02.414Z,1.07
2019-05-30T15:12:34.126Z,1.30
2019-05-30T15:15:12.410Z,0.97
2019-05-30T15:17:40.977Z,1.33
2019-05-30T15:20:14.569Z,1.10
2019-05-30T15:22:46.734Z,1.13
2019-05-30T15:25:19.283Z,0.90
2019-05-30T15:27:51.450Z,1.30
2019-05-30T15:30:23.606Z,1.20
2019-05-30T15:32:55.597Z,1.10
2019-05-30T15:35:27.954Z,1.23
2019-05-30T15:38:00.318Z,1.10
2019-05-30T15:40:32.216Z,1.10
2019-05-30T15:43:04.172Z,1.50
2019-05-30T15:45:36.177Z,1.00
2019-05-30T15:48:08.373Z,1.20
2019-05-30T15:50:40.621Z,1.47
2019-05-30T15:53:13.078Z,1.10
2019-05-30T15:55:46.246Z,1.20
2019-05-30T15:58:18.190Z,1.10
2019-05-30T16:00:52.258Z,0.97
2019-05-30T16:03:24.322Z,1.07
2019-05-30T16:05:55.989Z,1.10
2019-05-30T16:08:27.609Z,1.00
2019-05-30T16:10:59.357Z,1.20
2019-05-30T16:13:31.163Z,1.00
2019-05-30T16:16:02.974Z,1.10
2019-05-30T16:18:34.675Z,1.30
2019-05-30T16:21:07.446Z,1.97
2019-05-30T16:23:39.008Z,1.17
2019-05-30T16:26:11.012Z,1.40
2019-05-30T16:28:42.541Z,1.57
2019-05-30T16:31:14.233Z,1.50
2019-05-30T16:33:45.839Z,1.30
2019-05-30T16:36:17.866Z,1.60
2019-05-30T16:38:50.063Z,1.93
2019-05-30T16:41:22.332Z,2.10
2019-05-30T16:43:53.583Z,2.43
2019-05-30T16:46:24.458Z,1.50
2019-05-30T16:48:55.377Z,1.47
2019-05-30T16:51:26.965Z,2.07
2019-05-30T16:53:57.923Z,1.33
2019-05-30T16:56:28.881Z,1.20
2019-05-30T16:59:00.198Z,1.70
2019-05-30T17:01:31.069Z,2.00
2019-05-30T17:04:01.950Z,2.33
2019-05-30T17:06:32.815Z,2.30
2019-05-30T17:09:05.691Z,2.17
2019-05-30T17:11:36.544Z,1.70
2019-05-30T17:14:07.446Z,1.83
2019-05-30T17:16:38.454Z,1.80
2019-05-30T17:19:09.258Z,1.63
2019-05-30T17:21:40.158Z,1.27
2019-05-30T17:24:09.930Z,1.47
2019-05-30T17:26:41.521Z,1.40
2019-05-30T17:29:12.642Z,1.30
2019-05-30T17:31:43.839Z,1.40
2019-05-30T17:34:14.702Z,1.33
2019-05-30T17:36:45.556Z,1.50
2019-05-30T17:39:16.538Z,1.40
2019-05-30T17:41:47.300Z,1.40
2019-05-30T17:44:19.234Z,1.40
2019-05-30T17:48:02.829Z,1.53
2019-05-30T17:50:30.638Z,1.70
2019-05-30T17:53:19.763Z,1.70
2019-05-30T17:55:50.646Z,1.97
2019-05-30T17:58:21.907Z,1.77
2019-05-30T18:00:52.773Z,1.60
2019-05-30T18:03:24.396Z,2.10
2019-05-30T18:05:55.240Z,1.93
2019-05-30T18:08:26.868Z,1.90
2019-05-30T18:10:57.756Z,2.50
2019-05-30T18:13:29.224Z,2.33
2019-05-30T18:16:00.231Z,2.97
2019-05-30T18:18:31.474Z,19.20
2019-05-30T18:21:02.374Z,8.13
2019-05-30T18:23:39.233Z,19.70
2019-05-30T18:26:11.120Z,12.97
2019-05-30T18:28:44.018Z,15.90
2019-05-30T18:31:14.999Z,15.33
2019-05-30T18:33:46.081Z,11.37
2019-05-30T18:36:17.005Z,9.20
2019-05-30T18:41:17.542Z,5.53
2019-05-30T18:43:48.294Z,5.53
2019-05-30T18:46:19.318Z,7.30
2019-05-30T18:48:50.314Z,6.47
2019-05-30T18:51:21.141Z,4.97
2019-05-30T18:53:52.060Z,6.77
2019-05-30T18:56:22.896Z,6.40
2019-05-30T18:58:53.660Z,4.67
2019-05-30T19:01:25.395Z,7.03
2019-05-30T19:03:56.285Z,7.20
2019-05-30T19:06:28.245Z,6.87
2019-05-30T19:08:59.409Z,4.27
2019-05-30T19:11:34.645Z,4.43
2019-05-30T19:14:02.870Z,4.80
2019-05-30T19:16:34.626Z,5.07
2019-05-30T19:19:06.574Z,5.03
2019-05-30T19:21:38.478Z,4.93
2019-05-30T19:24:09.399Z,4.43
2019-05-30T19:26:40.282Z,4.20
2019-05-30T19:29:11.215Z,4.13
2019-05-30T19:31:42.780Z,4.30
2019-05-30T19:34:13.619Z,7.13
2019-05-30T19:36:44.520Z,5.77
2019-05-30T19:39:15.410Z,5.67
2019-05-30T19:41:56.716Z,6.03
2019-05-30T19:44:19.035Z,6.47
2019-05-30T19:46:50.010Z,6.53
2019-05-30T19:49:23.046Z,6.63
2019-05-30T19:51:56.608Z,6.10
2019-05-30T19:54:25.364Z,5.67
2019-05-30T19:56:58.319Z,5.73
2019-05-30T19:59:33.693Z,12.20
2019-05-30T20:02:05.013Z,22.90
2019-05-30T20:04:36.704Z,9.20
2019-05-30T20:07:07.674Z,7.20
2019-05-30T20:09:40.749Z,6.80
2019-05-30T20:12:11.687Z,6.33
2019-05-30T20:14:42.553Z,6.60
2019-05-30T20:17:13.460Z,7.30
2019-05-30T20:19:44.259Z,5.70
2019-05-30T20:22:15.046Z,6.53
2019-05-30T20:24:45.817Z,5.60
2019-05-30T20:27:16.680Z,5.70
2019-05-30T20:29:47.689Z,5.33
2019-05-30T20:32:18.641Z,5.30
2019-05-30T20:35:07.605Z,4.93
2019-05-30T20:40:48.489Z,5.30
2019-05-30T20:43:40.942Z,5.63
2019-05-30T20:46:41.301Z,4.80
2019-05-30T20:49:59.527Z,3.70
2019-05-30T20:52:43.737Z,3.93
2019-05-30T20:55:36.397Z,3.40
2019-05-30T20:58:45.770Z,3.80
2019-05-30T21:01:41.668Z,4.27
2019-05-30T21:04:11.530Z,4.10
2019-05-30T21:06:47.184Z,4.00
2019-05-30T21:09:42.474Z,3.77
2019-05-30T21:12:41.168Z,3.63
2019-05-30T21:15:15.790Z,3.87
2019-05-30T21:17:58.580Z,3.50
2019-05-30T21:20:37.808Z,3.90
2019-05-30T21:23:21.781Z,3.60
2019-05-30T21:25:54.219Z,4.10
2019-05-30T21:28:25.053Z,3.80
2019-05-30T21:30:55.929Z,3.37
2019-05-30T21:33:26.690Z,3.67
2019-05-30T21:35:57.517Z,3.40
2019-05-30T21:38:28.351Z,3.40
2019-05-30T21:40:59.148Z,3.33
2019-05-30T21:43:29.969Z,3.10
2019-05-30T21:46:02.555Z,3.30
2019-05-30T21:48:33.336Z,3.10
2019-05-30T21:51:04.359Z,2.83
2019-05-30T21:53:35.383Z,2.60
2019-05-30T21:56:07.097Z,2.60
2019-05-30T21:58:40.055Z,3.00
2019-05-30T22:01:33.030Z,3.20
2019-05-30T22:04:07.100Z,3.13
2019-05-30T22:06:38.250Z,3.03
2019-05-30T22:09:11.223Z,3.27
2019-05-30T22:11:43.504Z,3.60
2019-05-30T22:14:16.682Z,3.90
2019-05-30T22:16:47.920Z,3.60
2019-05-30T22:19:19.127Z,3.90
2019-05-30T22:21:50.381Z,3.40
2019-05-30T22:24:22.576Z,4.20
2019-05-30T22:26:54.492Z,4.03
2019-05-30T22:29:25.263Z,3.77
2019-05-30T22:31:55.955Z,3.60
2019-05-30T22:34:26.698Z,3.70
2019-05-30T22:36:57.491Z,3.50
2019-05-30T22:39:28.280Z,3.43
2019-05-30T22:41:59.048Z,3.40
2019-05-30T22:44:29.783Z,3.57
2019-05-30T22:47:00.495Z,3.30
2019-05-30T22:49:31.295Z,3.40
2019-05-30T22:52:02.039Z,3.53
2019-05-30T22:54:32.814Z,3.20
2019-05-30T22:57:03.582Z,3.40
2019-05-30T22:59:34.448Z,3.17
2019-05-30T23:02:05.205Z,3.33
2019-05-30T23:04:35.969Z,3.60
2019-05-30T23:07:06.752Z,3.50
2019-05-30T23:09:37.544Z,3.13
2019-05-30T23:12:08.319Z,3.10
2019-05-30T23:14:39.130Z,3.30
2019-05-30T23:17:13.014Z,3.40
2019-05-30T23:19:43.898Z,3.40
2019-05-30T23:22:14.664Z,3.43
2019-05-30T23:24:45.410Z,3.30
2019-05-30T23:27:16.159Z,3.17
2019-05-30T23:29:53.817Z,3.10
2019-05-30T23:32:24.788Z,3.10
2019-05-30T23:34:56.380Z,3.00
2019-05-30T23:37:27.230Z,3.40
2019-05-30T23:39:58.962Z,3.33
2019-05-30T23:42:29.751Z,3.37
2019-05-30T23:45:00.587Z,3.17
2019-05-30T23:47:31.592Z,3.30
2019-05-30T23:50:02.561Z,3.00
2019-05-30T23:52:33.397Z,3.17
2019-05-30T23:55:04.657Z,3.23
2019-05-30T23:57:35.373Z,3.13
